sensor_id;sensor_type;location;lat;lon;timestamp;pressure;altitude;pressure_sealevel;temperature;humidity
60817;BME280;51921;51.518;-3.188;2023-12-29T00:02:22;100171.61;;;5.50;100.00
60817;BME280;51921;51.518;-3.188;2023-12-29T00:04:46;100175.36;;;5.72;100.00
60817;BME280;51921;51.518;-3.188;2023-12-29T00:07:12;100174.37;;;5.67;100.00
60817;BME280;51921;51.518;-3.188;2023-12-29T00:09:37;100172.91;;;5.45;100.00
60817;BME280;51921;51.518;-3.188;2023-12-29T00:12:04;100168.61;;;5.55;100.00
60817;BME280;51921;51.518;-3.188;2023-12-29T00:14:28;100166.68;;;5.29;100.00
60817;BME280;51921;51.518;-3.188;2023-12-29T00:16:54;100174.23;;;6.11;100.00
60817;BME280;51921;51.518;-3.188;2023-12-29T00:19:19;100170.00;;;5.75;100.00
60817;BME280;51921;51.518;-3.188;2023-12-29T00:21:44;100164.88;;;5.74;100.00
60817;BME280;51921;51.518;-3.188;2023-12-29T00:24:10;100159.48;;;5.44;100.00
60817;BME280;51921;51.518;-3.188;2023-12-29T00:26:35;100152.83;;;5.69;100.00
60817;BME280;51921;51.518;-3.188;2023-12-29T00:29:01;100161.52;;;6.13;100.00
60817;BME280;51921;51.518;-3.188;2023-12-29T00:31:26;100166.61;;;5.81;100.00
60817;BME280;51921;51.518;-3.188;2023-12-29T00:33:52;100155.67;;;5.85;100.00
60817;BME280;51921;51.518;-3.188;2023-12-29T00:36:18;100153.93;;;5.73;100.00
60817;BME280;51921;51.518;-3.188;2023-12-29T00:38:42;100154.26;;;5.55;100.00
60817;BME280;51921;51.518;-3.188;2023-12-29T00:41:08;100153.68;;;6.31;100.00
60817;BME280;51921;51.518;-3.188;2023-12-29T00:43:33;100138.10;;;5.77;100.00
60817;BME280;51921;51.518;-3.188;2023-12-29T00:45:58;100137.20;;;5.77;100.00
60817;BME280;51921;51.518;-3.188;2023-12-29T00:48:24;100136.14;;;5.64;100.00
60817;BME280;51921;51.518;-3.188;2023-12-29T00:50:49;100142.96;;;5.71;100.00
60817;BME280;51921;51.518;-3.188;2023-12-29T00:53:14;100150.06;;;5.82;100.00
60817;BME280;51921;51.518;-3.188;2023-12-29T00:55:40;100148.13;;;5.47;100.00
60817;BME280;51921;51.518;-3.188;2023-12-29T00:58:05;100151.35;;;5.96;100.00
60817;BME280;51921;51.518;-3.188;2023-12-29T01:00:30;100145.02;;;6.11;100.00
60817;BME280;51921;51.518;-3.188;2023-12-29T01:02:56;100148.49;;;6.00;100.00
60817;BME280;51921;51.518;-3.188;2023-12-29T01:05:22;100148.45;;;5.36;100.00
60817;BME280;51921;51.518;-3.188;2023-12-29T01:07:47;100135.30;;;5.59;100.00
60817;BME280;51921;51.518;-3.188;2023-12-29T01:10:12;100132.76;;;6.18;100.00
60817;BME280;51921;51.518;-3.188;2023-12-29T01:12:37;100140.27;;;5.80;100.00
60817;BME280;51921;51.518;-3.188;2023-12-29T01:15:04;100139.41;;;5.63;100.00
60817;BME280;51921;51.518;-3.188;2023-12-29T01:17:28;100136.84;;;5.67;100.00
60817;BME280;51921;51.518;-3.188;2023-12-29T01:19:54;100156.63;;;6.03;100.00
60817;BME280;51921;51.518;-3.188;2023-12-29T01:22:19;100158.16;;;5.61;100.00
60817;BME280;51921;51.518;-3.188;2023-12-29T01:24:44;100156.12;;;5.56;100.00
60817;BME280;51921;51.518;-3.188;2023-12-29T01:27:10;100165.91;;;5.65;100.00
60817;BME280;51921;51.518;-3.188;2023-12-29T01:29:35;100158.19;;;5.49;100.00
60817;BME280;51921;51.518;-3.188;2023-12-29T01:32:01;100164.56;;;5.34;100.00
60817;BME280;51921;51.518;-3.188;2023-12-29T01:34:26;100161.96;;;4.97;100.00
60817;BME280;51921;51.518;-3.188;2023-12-29T01:36:51;100150.67;;;4.96;100.00
60817;BME280;51921;51.518;-3.188;2023-12-29T01:39:17;100160.04;;;5.50;100.00
60817;BME280;51921;51.518;-3.188;2023-12-29T01:41:42;100155.23;;;5.73;100.00
60817;BME280;51921;51.518;-3.188;2023-12-29T01:44:18;100133.96;;;5.75;100.00
60817;BME280;51921;51.518;-3.188;2023-12-29T01:46:34;100139.28;;;5.00;100.00
60817;BME280;51921;51.518;-3.188;2023-12-29T01:48:59;100145.92;;;5.24;100.00
60817;BME280;51921;51.518;-3.188;2023-12-29T01:51:25;100142.18;;;5.25;100.00
60817;BME280;51921;51.518;-3.188;2023-12-29T01:53:50;100150.51;;;5.72;100.00
60817;BME280;51921;51.518;-3.188;2023-12-29T01:56:14;100150.49;;;5.65;100.00
60817;BME280;51921;51.518;-3.188;2023-12-29T01:58:40;100142.77;;;5.95;100.00
60817;BME280;51921;51.518;-3.188;2023-12-29T02:01:07;100149.13;;;5.69;100.00
60817;BME280;51921;51.518;-3.188;2023-12-29T02:03:31;100156.84;;;6.19;100.00
60817;BME280;51921;51.518;-3.188;2023-12-29T02:05:57;100157.08;;;5.59;100.00
60817;BME280;51921;51.518;-3.188;2023-12-29T02:08:22;100148.58;;;5.65;100.00
60817;BME280;51921;51.518;-3.188;2023-12-29T02:10:48;100154.08;;;5.99;100.00
60817;BME280;51921;51.518;-3.188;2023-12-29T02:13:13;100148.01;;;5.44;100.00
60817;BME280;51921;51.518;-3.188;2023-12-29T02:15:39;100139.64;;;5.24;100.00
60817;BME280;51921;51.518;-3.188;2023-12-29T02:18:06;100151.44;;;5.76;100.00
60817;BME280;51921;51.518;-3.188;2023-12-29T02:20:29;100148.01;;;5.45;100.00
60817;BME280;51921;51.518;-3.188;2023-12-29T02:22:54;100144.56;;;5.42;100.00
60817;BME280;51921;51.518;-3.188;2023-12-29T02:25:20;100150.43;;;5.03;100.00
60817;BME280;51921;51.518;-3.188;2023-12-29T02:27:51;100155.13;;;5.86;100.00
60817;BME280;51921;51.518;-3.188;2023-12-29T02:30:17;100156.27;;;5.93;100.00
60817;BME280;51921;51.518;-3.188;2023-12-29T02:32:39;100149.30;;;5.92;100.00
60817;BME280;51921;51.518;-3.188;2023-12-29T02:35:03;100146.85;;;5.56;100.00
60817;BME280;51921;51.518;-3.188;2023-12-29T02:37:28;100142.37;;;5.81;100.00
60817;BME280;51921;51.518;-3.188;2023-12-29T02:39:54;100154.48;;;5.99;100.00
60817;BME280;51921;51.518;-3.188;2023-12-29T02:42:18;100158.37;;;6.16;100.00
60817;BME280;51921;51.518;-3.188;2023-12-29T02:44:44;100165.94;;;5.98;100.00
60817;BME280;51921;51.518;-3.188;2023-12-29T02:47:09;100167.63;;;5.33;100.00
60817;BME280;51921;51.518;-3.188;2023-12-29T02:49:35;100165.83;;;5.13;100.00
60817;BME280;51921;51.518;-3.188;2023-12-29T02:52:00;100171.29;;;5.58;100.00
60817;BME280;51921;51.518;-3.188;2023-12-29T02:54:26;100161.40;;;5.26;100.00
60817;BME280;51921;51.518;-3.188;2023-12-29T02:56:51;100155.51;;;5.07;100.00
60817;BME280;51921;51.518;-3.188;2023-12-29T02:59:17;100156.47;;;5.12;100.00
60817;BME280;51921;51.518;-3.188;2023-12-29T03:01:42;100150.46;;;5.52;100.00
60817;BME280;51921;51.518;-3.188;2023-12-29T03:04:08;100143.12;;;5.53;100.00
60817;BME280;51921;51.518;-3.188;2023-12-29T03:06:33;100139.61;;;5.27;100.00
60817;BME280;51921;51.518;-3.188;2023-12-29T03:08:59;100143.42;;;5.70;100.00
60817;BME280;51921;51.518;-3.188;2023-12-29T03:11:24;100145.02;;;5.23;100.00
60817;BME280;51921;51.518;-3.188;2023-12-29T03:13:50;100151.33;;;5.52;100.00
60817;BME280;51921;51.518;-3.188;2023-12-29T03:16:15;100156.47;;;5.71;100.00
60817;BME280;51921;51.518;-3.188;2023-12-29T03:18:40;100146.57;;;5.14;100.00
60817;BME280;51921;51.518;-3.188;2023-12-29T03:21:06;100155.10;;;5.78;100.00
60817;BME280;51921;51.518;-3.188;2023-12-29T03:23:31;100146.70;;;5.41;100.00
60817;BME280;51921;51.518;-3.188;2023-12-29T03:25:57;100145.13;;;5.39;100.00
60817;BME280;51921;51.518;-3.188;2023-12-29T03:28:23;100147.90;;;5.51;100.00
60817;BME280;51921;51.518;-3.188;2023-12-29T03:30:48;100151.38;;;5.65;100.00
60817;BME280;51921;51.518;-3.188;2023-12-29T03:33:15;100156.02;;;5.36;100.00
60817;BME280;51921;51.518;-3.188;2023-12-29T03:35:39;100149.85;;;5.87;100.00
60817;BME280;51921;51.518;-3.188;2023-12-29T03:38:04;100151.39;;;5.41;100.00
60817;BME280;51921;51.518;-3.188;2023-12-29T03:40:30;100154.06;;;5.38;100.00
60817;BME280;51921;51.518;-3.188;2023-12-29T03:42:56;100150.52;;;5.95;100.00
60817;BME280;51921;51.518;-3.188;2023-12-29T03:45:21;100146.08;;;5.68;100.00
60817;BME280;51921;51.518;-3.188;2023-12-29T03:47:47;100144.64;;;5.23;100.00
60817;BME280;51921;51.518;-3.188;2023-12-29T03:50:12;100140.14;;;4.91;100.00
60817;BME280;51921;51.518;-3.188;2023-12-29T03:52:38;100133.60;;;5.01;100.00
60817;BME280;51921;51.518;-3.188;2023-12-29T03:55:04;100129.97;;;5.23;100.00
60817;BME280;51921;51.518;-3.188;2023-12-29T03:57:29;100128.91;;;5.32;100.00
60817;BME280;51921;51.518;-3.188;2023-12-29T03:59:54;100129.22;;;5.10;100.00
60817;BME280;51921;51.518;-3.188;2023-12-29T04:02:20;100138.20;;;5.96;100.00
60817;BME280;51921;51.518;-3.188;2023-12-29T04:04:45;100125.30;;;5.29;100.00
60817;BME280;51921;51.518;-3.188;2023-12-29T04:07:11;100129.07;;;5.11;100.00
60817;BME280;51921;51.518;-3.188;2023-12-29T04:09:36;100128.40;;;5.14;100.00
60817;BME280;51921;51.518;-3.188;2023-12-29T04:12:02;100132.13;;;5.96;100.00
60817;BME280;51921;51.518;-3.188;2023-12-29T04:14:27;100152.32;;;5.64;100.00
60817;BME280;51921;51.518;-3.188;2023-12-29T04:16:53;100139.11;;;5.33;100.00
60817;BME280;51921;51.518;-3.188;2023-12-29T04:19:18;100141.98;;;5.93;100.00
60817;BME280;51921;51.518;-3.188;2023-12-29T04:21:44;100141.47;;;5.54;100.00
60817;BME280;51921;51.518;-3.188;2023-12-29T04:24:09;100146.81;;;5.27;100.00
60817;BME280;51921;51.518;-3.188;2023-12-29T04:26:36;100147.21;;;5.76;100.00
60817;BME280;51921;51.518;-3.188;2023-12-29T04:29:00;100196.34;;;5.03;100.00
60817;BME280;51921;51.518;-3.188;2023-12-29T04:31:25;100194.91;;;4.70;100.00
60817;BME280;51921;51.518;-3.188;2023-12-29T04:33:51;100189.08;;;4.32;100.00
60817;BME280;51921;51.518;-3.188;2023-12-29T04:36:16;100181.29;;;3.89;100.00
60817;BME280;51921;51.518;-3.188;2023-12-29T04:38:42;100188.76;;;4.12;100.00
60817;BME280;51921;51.518;-3.188;2023-12-29T04:41:08;100197.13;;;4.05;100.00
60817;BME280;51921;51.518;-3.188;2023-12-29T04:43:33;100187.29;;;4.07;100.00
60817;BME280;51921;51.518;-3.188;2023-12-29T04:45:59;100186.73;;;3.64;100.00
60817;BME280;51921;51.518;-3.188;2023-12-29T04:48:24;100187.27;;;4.31;100.00
60817;BME280;51921;51.518;-3.188;2023-12-29T04:50:50;100181.14;;;4.46;100.00
60817;BME280;51921;51.518;-3.188;2023-12-29T04:53:15;100189.41;;;4.20;100.00
60817;BME280;51921;51.518;-3.188;2023-12-29T04:55:41;100189.55;;;4.00;100.00
60817;BME280;51921;51.518;-3.188;2023-12-29T04:58:06;100183.66;;;4.37;100.00
60817;BME280;51921;51.518;-3.188;2023-12-29T05:00:32;100188.05;;;4.18;100.00
60817;BME280;51921;51.518;-3.188;2023-12-29T05:02:57;100179.33;;;4.30;100.00
60817;BME280;51921;51.518;-3.188;2023-12-29T05:05:23;100181.80;;;4.13;100.00
60817;BME280;51921;51.518;-3.188;2023-12-29T05:07:48;100190.19;;;4.86;100.00
60817;BME280;51921;51.518;-3.188;2023-12-29T05:10:14;100189.21;;;5.20;100.00
60817;BME280;51921;51.518;-3.188;2023-12-29T05:12:39;100188.81;;;5.54;100.00
60817;BME280;51921;51.518;-3.188;2023-12-29T05:15:06;100186.55;;;4.33;100.00
60817;BME280;51921;51.518;-3.188;2023-12-29T05:17:30;100187.51;;;5.09;100.00
60817;BME280;51921;51.518;-3.188;2023-12-29T05:19:55;100188.64;;;5.32;100.00
60817;BME280;51921;51.518;-3.188;2023-12-29T05:22:21;100188.36;;;5.52;100.00
60817;BME280;51921;51.518;-3.188;2023-12-29T05:24:47;100190.25;;;5.70;100.00
60817;BME280;51921;51.518;-3.188;2023-12-29T05:27:12;100181.78;;;5.36;100.00
60817;BME280;51921;51.518;-3.188;2023-12-29T05:29:37;100180.25;;;5.31;100.00
60817;BME280;51921;51.518;-3.188;2023-12-29T05:32:04;100169.80;;;4.68;100.00
60817;BME280;51921;51.518;-3.188;2023-12-29T05:34:28;100168.00;;;5.78;100.00
60817;BME280;51921;51.518;-3.188;2023-12-29T05:36:54;100169.71;;;5.31;100.00
60817;BME280;51921;51.518;-3.188;2023-12-29T05:39:19;100165.33;;;5.23;100.00
60817;BME280;51921;51.518;-3.188;2023-12-29T05:41:44;100166.36;;;5.44;100.00
60817;BME280;51921;51.518;-3.188;2023-12-29T05:44:10;100167.73;;;4.70;100.00
60817;BME280;51921;51.518;-3.188;2023-12-29T05:46:35;100163.47;;;4.83;100.00
60817;BME280;51921;51.518;-3.188;2023-12-29T05:49:01;100168.02;;;5.33;100.00
60817;BME280;51921;51.518;-3.188;2023-12-29T05:51:27;100174.81;;;5.52;100.00
60817;BME280;51921;51.518;-3.188;2023-12-29T05:53:52;100177.60;;;5.49;100.00
60817;BME280;51921;51.518;-3.188;2023-12-29T05:56:17;100178.07;;;6.14;100.00
60817;BME280;51921;51.518;-3.188;2023-12-29T05:58:43;100175.53;;;6.41;100.00
60817;BME280;51921;51.518;-3.188;2023-12-29T06:01:08;100175.34;;;5.09;100.00
60817;BME280;51921;51.518;-3.188;2023-12-29T06:03:34;100169.28;;;5.40;100.00
60817;BME280;51921;51.518;-3.188;2023-12-29T06:06:00;100171.69;;;5.82;100.00
60817;BME280;51921;51.518;-3.188;2023-12-29T06:08:25;100177.37;;;6.19;100.00
60817;BME280;51921;51.518;-3.188;2023-12-29T06:10:51;100177.81;;;6.41;100.00
60817;BME280;51921;51.518;-3.188;2023-12-29T06:13:16;100186.02;;;5.87;100.00
60817;BME280;51921;51.518;-3.188;2023-12-29T06:15:42;100188.08;;;5.94;100.00
60817;BME280;51921;51.518;-3.188;2023-12-29T06:18:07;100191.30;;;6.31;100.00
60817;BME280;51921;51.518;-3.188;2023-12-29T06:20:32;100193.19;;;6.22;100.00
60817;BME280;51921;51.518;-3.188;2023-12-29T06:22:59;100187.68;;;6.04;100.00
60817;BME280;51921;51.518;-3.188;2023-12-29T06:25:23;100189.56;;;6.55;100.00
60817;BME280;51921;51.518;-3.188;2023-12-29T06:27:49;100187.18;;;6.82;100.00
60817;BME280;51921;51.518;-3.188;2023-12-29T06:30:15;100187.60;;;5.15;100.00
60817;BME280;51921;51.518;-3.188;2023-12-29T06:32:40;100190.53;;;5.66;100.00
60817;BME280;51921;51.518;-3.188;2023-12-29T06:35:06;100188.34;;;5.74;100.00
60817;BME280;51921;51.518;-3.188;2023-12-29T06:37:31;100187.09;;;5.39;100.00
60817;BME280;51921;51.518;-3.188;2023-12-29T06:39:56;100192.12;;;5.73;100.00
60817;BME280;51921;51.518;-3.188;2023-12-29T06:42:21;100186.06;;;4.98;100.00
60817;BME280;51921;51.518;-3.188;2023-12-29T06:44:47;100182.21;;;5.43;100.00
60817;BME280;51921;51.518;-3.188;2023-12-29T06:47:13;100178.45;;;4.91;100.00
60817;BME280;51921;51.518;-3.188;2023-12-29T06:49:38;100178.07;;;5.77;100.00
60817;BME280;51921;51.518;-3.188;2023-12-29T06:52:04;100178.78;;;5.34;100.00
60817;BME280;51921;51.518;-3.188;2023-12-29T06:54:29;100181.14;;;5.79;100.00
60817;BME280;51921;51.518;-3.188;2023-12-29T06:56:54;100178.74;;;4.96;100.00
60817;BME280;51921;51.518;-3.188;2023-12-29T06:59:20;100181.64;;;5.74;100.00
60817;BME280;51921;51.518;-3.188;2023-12-29T07:01:45;100181.71;;;5.25;100.00
60817;BME280;51921;51.518;-3.188;2023-12-29T07:04:11;100185.33;;;5.12;100.00
60817;BME280;51921;51.518;-3.188;2023-12-29T07:06:36;100194.29;;;6.24;100.00
60817;BME280;51921;51.518;-3.188;2023-12-29T07:09:02;100191.12;;;5.62;100.00
60817;BME280;51921;51.518;-3.188;2023-12-29T07:11:28;100188.48;;;5.99;100.00
60817;BME280;51921;51.518;-3.188;2023-12-29T07:13:53;100186.75;;;6.38;100.00
60817;BME280;51921;51.518;-3.188;2023-12-29T07:16:18;100185.21;;;6.02;100.00
60817;BME280;51921;51.518;-3.188;2023-12-29T07:18:44;100183.70;;;5.94;100.00
60817;BME280;51921;51.518;-3.188;2023-12-29T07:21:09;100189.00;;;5.69;100.00
60817;BME280;51921;51.518;-3.188;2023-12-29T07:23:35;100184.82;;;5.57;100.00
60817;BME280;51921;51.518;-3.188;2023-12-29T07:26:01;100177.91;;;6.07;100.00
60817;BME280;51921;51.518;-3.188;2023-12-29T07:28:26;100173.72;;;5.74;100.00
60817;BME280;51921;51.518;-3.188;2023-12-29T07:30:51;100182.35;;;7.20;100.00
60817;BME280;51921;51.518;-3.188;2023-12-29T07:33:17;100183.15;;;7.69;100.00
60817;BME280;51921;51.518;-3.188;2023-12-29T07:35:42;100192.95;;;6.84;100.00
60817;BME280;51921;51.518;-3.188;2023-12-29T07:38:08;100195.14;;;6.43;100.00
60817;BME280;51921;51.518;-3.188;2023-12-29T07:40:33;100198.71;;;6.75;100.00
60817;BME280;51921;51.518;-3.188;2023-12-29T07:42:58;100198.17;;;7.00;100.00
60817;BME280;51921;51.518;-3.188;2023-12-29T07:45:24;100203.71;;;6.78;100.00
60817;BME280;51921;51.518;-3.188;2023-12-29T07:47:49;100205.76;;;6.11;100.00
60817;BME280;51921;51.518;-3.188;2023-12-29T07:50:15;100206.11;;;5.55;100.00
60817;BME280;51921;51.518;-3.188;2023-12-29T07:52:42;100201.43;;;5.57;100.00
60817;BME280;51921;51.518;-3.188;2023-12-29T07:55:06;100196.24;;;4.90;100.00
60817;BME280;51921;51.518;-3.188;2023-12-29T07:57:31;100199.67;;;5.29;100.00
60817;BME280;51921;51.518;-3.188;2023-12-29T07:59:57;100195.55;;;5.20;100.00
60817;BME280;51921;51.518;-3.188;2023-12-29T08:02:22;100186.38;;;4.66;100.00
60817;BME280;51921;51.518;-3.188;2023-12-29T08:04:48;100173.94;;;4.99;100.00
60817;BME280;51921;51.518;-3.188;2023-12-29T08:07:13;100177.06;;;5.52;100.00
60817;BME280;51921;51.518;-3.188;2023-12-29T08:09:44;100176.12;;;5.85;100.00
60817;BME280;51921;51.518;-3.188;2023-12-29T08:12:05;100176.32;;;5.97;100.00
60817;BME280;51921;51.518;-3.188;2023-12-29T08:14:29;100180.19;;;5.96;100.00
60817;BME280;51921;51.518;-3.188;2023-12-29T08:16:55;100187.09;;;5.94;100.00
60817;BME280;51921;51.518;-3.188;2023-12-29T08:19:21;100190.85;;;5.80;100.00
60817;BME280;51921;51.518;-3.188;2023-12-29T08:21:46;100191.65;;;6.47;100.00
60817;BME280;51921;51.518;-3.188;2023-12-29T08:24:11;100193.91;;;6.41;100.00
60817;BME280;51921;51.518;-3.188;2023-12-29T08:26:43;100199.54;;;6.15;100.00
60817;BME280;51921;51.518;-3.188;2023-12-29T08:29:02;100198.97;;;6.06;100.00
60817;BME280;51921;51.518;-3.188;2023-12-29T08:31:28;100193.04;;;4.61;100.00
60817;BME280;51921;51.518;-3.188;2023-12-29T08:33:53;100196.59;;;5.80;100.00
60817;BME280;51921;51.518;-3.188;2023-12-29T08:36:21;100197.40;;;6.11;100.00
60817;BME280;51921;51.518;-3.188;2023-12-29T08:38:44;100198.26;;;6.07;100.00
60817;BME280;51921;51.518;-3.188;2023-12-29T08:41:13;100202.06;;;5.65;100.00
60817;BME280;51921;51.518;-3.188;2023-12-29T08:43:35;100202.11;;;5.93;100.00
60817;BME280;51921;51.518;-3.188;2023-12-29T08:46:01;100208.09;;;6.66;100.00
60817;BME280;51921;51.518;-3.188;2023-12-29T08:48:26;100210.44;;;6.58;100.00
60817;BME280;51921;51.518;-3.188;2023-12-29T08:50:52;100214.64;;;6.71;100.00
60817;BME280;51921;51.518;-3.188;2023-12-29T08:53:17;100210.00;;;7.08;100.00
60817;BME280;51921;51.518;-3.188;2023-12-29T08:55:43;100200.36;;;6.52;100.00
60817;BME280;51921;51.518;-3.188;2023-12-29T08:58:08;100205.94;;;6.30;100.00
60817;BME280;51921;51.518;-3.188;2023-12-29T09:00:34;100206.01;;;6.41;100.00
60817;BME280;51921;51.518;-3.188;2023-12-29T09:02:59;100207.63;;;6.64;100.00
60817;BME280;51921;51.518;-3.188;2023-12-29T09:05:25;100214.41;;;6.73;100.00
60817;BME280;51921;51.518;-3.188;2023-12-29T09:07:50;100216.01;;;6.11;100.00
60817;BME280;51921;51.518;-3.188;2023-12-29T09:10:16;100212.67;;;6.69;100.00
60817;BME280;51921;51.518;-3.188;2023-12-29T09:12:41;100214.83;;;5.68;100.00
60817;BME280;51921;51.518;-3.188;2023-12-29T09:15:07;100211.13;;;5.85;100.00
60817;BME280;51921;51.518;-3.188;2023-12-29T09:17:33;100213.45;;;6.77;100.00
60817;BME280;51921;51.518;-3.188;2023-12-29T09:19:59;100225.97;;;6.22;100.00
60817;BME280;51921;51.518;-3.188;2023-12-29T09:22:23;100234.85;;;5.95;100.00
60817;BME280;51921;51.518;-3.188;2023-12-29T09:24:49;100238.32;;;5.35;100.00
60817;BME280;51921;51.518;-3.188;2023-12-29T09:27:14;100240.37;;;6.23;100.00
60817;BME280;51921;51.518;-3.188;2023-12-29T09:29:39;100241.66;;;5.49;100.00
60817;BME280;51921;51.518;-3.188;2023-12-29T09:32:05;100243.97;;;5.16;100.00
60817;BME280;51921;51.518;-3.188;2023-12-29T09:34:31;100240.02;;;5.41;100.00
60817;BME280;51921;51.518;-3.188;2023-12-29T09:36:56;100240.61;;;5.53;100.00
60817;BME280;51921;51.518;-3.188;2023-12-29T09:39:21;100243.36;;;4.87;100.00
60817;BME280;51921;51.518;-3.188;2023-12-29T09:41:50;100242.06;;;5.39;100.00
60817;BME280;51921;51.518;-3.188;2023-12-29T09:44:14;100243.12;;;4.96;100.00
60817;BME280;51921;51.518;-3.188;2023-12-29T09:46:38;100247.64;;;5.50;100.00
60817;BME280;51921;51.518;-3.188;2023-12-29T09:49:03;100253.00;;;4.72;100.00
60817;BME280;51921;51.518;-3.188;2023-12-29T09:51:29;100255.00;;;4.90;100.00
60817;BME280;51921;51.518;-3.188;2023-12-29T09:53:54;100259.54;;;4.88;100.00
60817;BME280;51921;51.518;-3.188;2023-12-29T09:56:19;100255.55;;;5.20;100.00
60817;BME280;51921;51.518;-3.188;2023-12-29T09:58:46;100237.13;;;5.33;100.00
60817;BME280;51921;51.518;-3.188;2023-12-29T10:01:10;100228.60;;;5.59;100.00
60817;BME280;51921;51.518;-3.188;2023-12-29T10:03:35;100234.52;;;6.31;100.00
60817;BME280;51921;51.518;-3.188;2023-12-29T10:06:06;100236.27;;;6.55;100.00
60817;BME280;51921;51.518;-3.188;2023-12-29T10:08:27;100236.23;;;6.54;100.00
60817;BME280;51921;51.518;-3.188;2023-12-29T10:10:53;100229.19;;;6.69;100.00
60817;BME280;51921;51.518;-3.188;2023-12-29T10:13:18;100231.52;;;6.26;100.00
60817;BME280;51921;51.518;-3.188;2023-12-29T10:15:49;100237.89;;;6.52;100.00
60817;BME280;51921;51.518;-3.188;2023-12-29T10:18:17;100236.93;;;6.00;100.00
60817;BME280;51921;51.518;-3.188;2023-12-29T10:20:44;100225.19;;;6.18;100.00
60817;BME280;51921;51.518;-3.188;2023-12-29T10:23:06;100214.75;;;6.54;100.00
60817;BME280;51921;51.518;-3.188;2023-12-29T10:25:25;100201.75;;;6.61;100.00
60817;BME280;51921;51.518;-3.188;2023-12-29T10:27:51;100211.09;;;6.89;100.00
60817;BME280;51921;51.518;-3.188;2023-12-29T10:30:16;100216.90;;;8.09;100.00
60817;BME280;51921;51.518;-3.188;2023-12-29T10:32:41;100224.06;;;7.03;100.00
60817;BME280;51921;51.518;-3.188;2023-12-29T10:35:08;100230.82;;;7.24;100.00
60817;BME280;51921;51.518;-3.188;2023-12-29T10:37:32;100234.30;;;7.90;100.00
60817;BME280;51921;51.518;-3.188;2023-12-29T10:39:58;100243.17;;;7.07;100.00
60817;BME280;51921;51.518;-3.188;2023-12-29T10:42:23;100257.19;;;7.73;100.00
60817;BME280;51921;51.518;-3.188;2023-12-29T10:47:14;100268.20;;;7.14;100.00
60817;BME280;51921;51.518;-3.188;2023-12-29T10:49:40;100277.03;;;6.98;100.00
60817;BME280;51921;51.518;-3.188;2023-12-29T10:52:11;100277.27;;;7.82;100.00
60817;BME280;51921;51.518;-3.188;2023-12-29T10:54:30;100280.97;;;6.68;100.00
60817;BME280;51921;51.518;-3.188;2023-12-29T10:57:01;100280.91;;;7.54;100.00
60817;BME280;51921;51.518;-3.188;2023-12-29T10:59:21;100288.29;;;6.53;100.00
60817;BME280;51921;51.518;-3.188;2023-12-29T11:01:47;100289.60;;;6.62;100.00
60817;BME280;51921;51.518;-3.188;2023-12-29T11:04:12;100284.82;;;6.45;100.00
60817;BME280;51921;51.518;-3.188;2023-12-29T11:06:43;100294.31;;;6.70;100.00
60817;BME280;51921;51.518;-3.188;2023-12-29T11:09:06;100292.12;;;7.16;100.00
60817;BME280;51921;51.518;-3.188;2023-12-29T11:11:29;100284.80;;;6.31;100.00
60817;BME280;51921;51.518;-3.188;2023-12-29T11:13:57;100276.67;;;6.19;100.00
60817;BME280;51921;51.518;-3.188;2023-12-29T11:16:20;100276.27;;;6.15;100.00
60817;BME280;51921;51.518;-3.188;2023-12-29T11:18:45;100282.16;;;6.94;100.00
60817;BME280;51921;51.518;-3.188;2023-12-29T11:21:11;100274.39;;;7.11;100.00
60817;BME280;51921;51.518;-3.188;2023-12-29T11:23:36;100277.17;;;6.92;100.00
60817;BME280;51921;51.518;-3.188;2023-12-29T11:26:03;100269.14;;;6.75;100.00
60817;BME280;51921;51.518;-3.188;2023-12-29T11:28:27;100271.82;;;7.21;100.00
60817;BME280;51921;51.518;-3.188;2023-12-29T11:30:52;100275.65;;;6.95;100.00
60817;BME280;51921;51.518;-3.188;2023-12-29T11:33:22;100268.21;;;5.80;100.00
60817;BME280;51921;51.518;-3.188;2023-12-29T11:35:47;100276.75;;;6.34;100.00
60817;BME280;51921;51.518;-3.188;2023-12-29T11:38:21;100270.21;;;6.35;100.00
60817;BME280;51921;51.518;-3.188;2023-12-29T11:40:41;100277.10;;;6.62;100.00
60817;BME280;51921;51.518;-3.188;2023-12-29T11:43:05;100271.88;;;5.91;100.00
60817;BME280;51921;51.518;-3.188;2023-12-29T11:45:28;100272.83;;;5.73;100.00
60817;BME280;51921;51.518;-3.188;2023-12-29T11:47:51;100270.82;;;5.65;100.00
60817;BME280;51921;51.518;-3.188;2023-12-29T11:50:29;100269.42;;;5.85;100.00
60817;BME280;51921;51.518;-3.188;2023-12-29T11:52:42;100268.28;;;6.14;100.00
60817;BME280;51921;51.518;-3.188;2023-12-29T11:55:08;100263.59;;;6.10;100.00
60817;BME280;51921;51.518;-3.188;2023-12-29T11:57:33;100261.66;;;5.79;100.00
60817;BME280;51921;51.518;-3.188;2023-12-29T11:59:58;100258.09;;;5.62;100.00
60817;BME280;51921;51.518;-3.188;2023-12-29T12:02:27;100255.73;;;5.84;100.00
60817;BME280;51921;51.518;-3.188;2023-12-29T12:04:50;100257.44;;;5.98;100.00
60817;BME280;51921;51.518;-3.188;2023-12-29T12:07:17;100260.62;;;5.49;100.00
60817;BME280;51921;51.518;-3.188;2023-12-29T12:09:41;100264.00;;;5.91;100.00
60817;BME280;51921;51.518;-3.188;2023-12-29T12:12:06;100265.73;;;5.91;100.00
60817;BME280;51921;51.518;-3.188;2023-12-29T12:14:44;100275.38;;;5.98;100.00
60817;BME280;51921;51.518;-3.188;2023-12-29T12:16:57;100285.06;;;5.52;100.00
60817;BME280;51921;51.518;-3.188;2023-12-29T12:19:23;100284.24;;;5.78;100.00
60817;BME280;51921;51.518;-3.188;2023-12-29T12:21:48;100293.00;;;5.69;100.00
60817;BME280;51921;51.518;-3.188;2023-12-29T12:24:14;100282.97;;;5.07;100.00
60817;BME280;51921;51.518;-3.188;2023-12-29T12:26:40;100273.58;;;5.66;100.00
60817;BME280;51921;51.518;-3.188;2023-12-29T12:29:05;100276.74;;;5.88;100.00
60817;BME280;51921;51.518;-3.188;2023-12-29T12:31:30;100272.13;;;5.86;100.00
60817;BME280;51921;51.518;-3.188;2023-12-29T12:33:59;100263.61;;;5.77;100.00